This is the latest recevied weather packets stored in our database for station/object KB1ZFK. If no packets are shown the sender has not sent any weather packets the latest 1 day(s).
| Time | Temp. | Humidity | Pressure | Rain* | Wind** | Luminosity | Snow |
|---|---|---|---|---|---|---|---|
| 1777995229 | 24.44° C | 44% | 1008.2 hPa | 0 mm | 0.89 m/s, 327° | 734 W/m² | - |
| 1777994926 | 24.44° C | 44% | 1008.1 hPa | 0 mm | 1.79 m/s, 226° | 761 W/m² | - |
| 1777994623 | 23.89° C | 46% | 1008.3 hPa | 0 mm | 1.34 m/s, 310° | 745 W/m² | - |
| 1777994318 | 23.33° C | 48% | 1008.4 hPa | 0 mm | 0.89 m/s, 34° | 737 W/m² | - |
| 1777994015 | 22.78° C | 49% | 1008.3 hPa | 0 mm | 1.79 m/s, 141° | 308 W/m² | - |
| 1777993711 | 22.22° C | 49% | 1008.4 hPa | 0 mm | 0.45 m/s, 320° | 260 W/m² | - |
| 1777993409 | 21.67° C | 50% | 1008.4 hPa | 0 mm | 0.89 m/s, 358° | 420 W/m² | - |
| 1777993103 | 21.67° C | 50% | 1008.6 hPa | 0 mm | 0.89 m/s, 322° | 205 W/m² | - |
| 1777992802 | 21.67° C | 51% | 1008.4 hPa | 0 mm | 0.89 m/s, 302° | 189 W/m² | - |
| 1777992499 | 21.67° C | 51% | 1008.6 hPa | 0 mm | 0.89 m/s, 246° | 198 W/m² | - |
| 1777992197 | 22.22° C | 50% | 1008.5 hPa | 0 mm | 2.68 m/s, 264° | 313 W/m² | - |
| 1777991894 | 21.11° C | 52% | 1008.7 hPa | 0 mm | 1.34 m/s, 325° | 812 W/m² | - |
| 1777991592 | 21.11° C | 52% | 1008.7 hPa | 0 mm | 0.89 m/s, 332° | 173 W/m² | - |
| 1777991288 | 21.11° C | 53% | 1008.7 hPa | 0 mm | 0 m/s | 185 W/m² | - |
| 1777990986 | 21.11° C | 52% | 1008.7 hPa | 0 mm | 0.45 m/s, 333° | 225 W/m² | - |
| 1777990683 | 21.11° C | 51% | 1008.7 hPa | 0 mm | 0.45 m/s, 338° | 314 W/m² | - |
| 1777990380 | 21.67° C | 50% | 1008.7 hPa | 0 mm | 0 m/s | 325 W/m² | - |
| 1777990076 | 21.67° C | 50% | 1008.7 hPa | 0 mm | 0.45 m/s, 328° | 563 W/m² | - |
| 1777989773 | 22.22° C | 50% | 1008.8 hPa | 0 mm | 1.34 m/s, 349° | 593 W/m² | - |
| 1777989470 | 21.67° C | 51% | 1008.7 hPa | 0 mm | 0.45 m/s, 334° | 583 W/m² | - |
| 1777989166 | 21.11° C | 52% | 1008.6 hPa | 0 mm | 0.45 m/s, 325° | 566 W/m² | - |
| 1777988862 | 20.56° C | 52% | 1008.6 hPa | 0 mm | 0 m/s | 562 W/m² | - |
| 1777988560 | 21.11° C | 53% | 1008.7 hPa | 0 mm | 0.45 m/s, 98° | 212 W/m² | - |
| 1777988256 | 20.56° C | 55% | 1008.7 hPa | 0 mm | 0.45 m/s, 340° | 506 W/m² | - |
| 1777987953 | 20° C | 57% | 1008.7 hPa | 0 mm | 0.45 m/s, 348° | 463 W/m² | - |
* Rain latest hour (hover to see other rain measurements)
** Current wind speed in m/s (hover to see current wind gust speed)